createdAt,value
2018-07-27T00:02:16.751Z,24.90
2018-07-27T00:04:44.920Z,24.90
2018-07-27T00:07:13.121Z,24.80
2018-07-27T00:09:41.304Z,24.80
2018-07-27T00:12:09.476Z,24.80
2018-07-27T00:14:37.652Z,24.70
2018-07-27T00:19:33.892Z,24.70
2018-07-27T00:22:02.076Z,24.60
2018-07-27T00:24:31.031Z,24.60
2018-07-27T00:26:59.220Z,24.60
2018-07-27T00:29:27.553Z,24.60
2018-07-27T00:31:55.757Z,24.60
2018-07-27T00:34:24.071Z,24.60
2018-07-27T00:36:52.283Z,24.60
2018-07-27T00:39:20.468Z,24.50
2018-07-27T00:41:48.672Z,24.50
2018-07-27T00:44:16.844Z,24.50
2018-07-27T00:46:45.256Z,24.50
2018-07-27T00:49:13.433Z,24.40
2018-07-27T00:51:41.650Z,24.40
2018-07-27T00:54:09.907Z,24.40
2018-07-27T00:56:38.061Z,24.40
2018-07-27T00:59:06.232Z,24.30
2018-07-27T01:01:34.401Z,24.30
2018-07-27T01:06:30.639Z,24.20
2018-07-27T01:08:58.882Z,24.20
2018-07-27T01:11:27.149Z,24.10
2018-07-27T01:13:55.421Z,24.00
2018-07-27T01:16:23.644Z,23.90
2018-07-27T01:18:51.886Z,23.90
2018-07-27T01:21:20.132Z,23.90
2018-07-27T01:23:48.364Z,23.90
2018-07-27T01:26:16.601Z,23.90
2018-07-27T01:28:44.860Z,23.90
2018-07-27T01:31:13.071Z,23.90
2018-07-27T01:33:41.324Z,23.90
2018-07-27T01:36:09.541Z,23.90
2018-07-27T01:38:37.853Z,23.90
2018-07-27T01:41:06.096Z,23.90
2018-07-27T01:43:34.303Z,23.90
2018-07-27T01:46:02.549Z,23.90
2018-07-27T01:48:30.788Z,23.90
2018-07-27T01:50:59.068Z,23.90
2018-07-27T01:53:27.332Z,23.90
2018-07-27T01:55:55.588Z,23.80
2018-07-27T01:58:23.924Z,23.80
2018-07-27T02:00:52.156Z,23.70
2018-07-27T02:03:20.428Z,23.70
2018-07-27T02:05:48.669Z,23.60
2018-07-27T02:08:16.908Z,23.50
2018-07-27T02:10:45.144Z,23.50
2018-07-27T02:13:13.367Z,23.40
2018-07-27T02:15:41.632Z,23.40
2018-07-27T02:18:09.840Z,23.30
2018-07-27T02:20:38.270Z,23.30
2018-07-27T02:23:06.453Z,23.20
2018-07-27T02:25:34.648Z,23.10
2018-07-27T02:30:30.808Z,23.00
2018-07-27T02:32:58.985Z,23.00
2018-07-27T02:35:27.143Z,22.90
2018-07-27T02:37:55.354Z,22.90
2018-07-27T02:40:23.801Z,22.90
2018-07-27T02:42:51.956Z,22.90
2018-07-27T02:45:20.128Z,22.80
2018-07-27T02:47:49.680Z,22.80
2018-07-27T02:50:18.741Z,22.80
2018-07-27T02:52:48.945Z,22.80
2018-07-27T02:55:17.342Z,22.80
2018-07-27T02:57:45.636Z,22.80
2018-07-27T03:00:13.896Z,22.70
2018-07-27T03:02:42.073Z,22.70
2018-07-27T03:05:10.249Z,22.70
2018-07-27T03:07:38.485Z,22.60
2018-07-27T03:10:07.033Z,22.60
2018-07-27T03:12:35.216Z,22.70
2018-07-27T03:15:03.432Z,22.60
2018-07-27T03:17:31.604Z,22.60
2018-07-27T03:19:59.958Z,22.50
2018-07-27T03:22:28.124Z,22.50
2018-07-27T03:24:56.289Z,22.50
2018-07-27T03:27:24.477Z,22.40
2018-07-27T03:29:52.635Z,22.50
2018-07-27T03:32:20.808Z,22.50
2018-07-27T03:34:48.964Z,22.50
2018-07-27T03:37:17.162Z,22.40
2018-07-27T03:39:45.311Z,22.40
2018-07-27T03:42:13.541Z,22.40
2018-07-27T03:44:41.704Z,22.40
2018-07-27T03:47:09.865Z,22.40
2018-07-27T03:49:38.042Z,22.40
2018-07-27T03:52:06.330Z,22.30
2018-07-27T03:54:34.528Z,22.30
2018-07-27T03:57:02.909Z,22.20
2018-07-27T03:59:31.081Z,22.20
2018-07-27T04:01:59.236Z,22.10
2018-07-27T04:04:27.413Z,22.10
2018-07-27T04:06:55.599Z,22.10
2018-07-27T04:09:23.785Z,22.10
2018-07-27T04:14:19.892Z,22.00
2018-07-27T04:16:48.053Z,22.00
2018-07-27T04:19:16.233Z,22.00
2018-07-27T04:21:44.386Z,22.00
2018-07-27T04:24:12.568Z,22.00
2018-07-27T04:26:40.724Z,22.00
2018-07-27T04:29:08.902Z,22.00
2018-07-27T04:31:37.064Z,22.00
2018-07-27T04:34:05.377Z,22.00
2018-07-27T04:36:33.541Z,22.00
2018-07-27T04:39:01.965Z,22.00
2018-07-27T04:41:30.297Z,21.90
2018-07-27T04:43:58.487Z,22.00
2018-07-27T04:46:26.672Z,22.00
2018-07-27T04:48:54.900Z,22.00
2018-07-27T04:51:23.084Z,22.00
2018-07-27T04:53:51.397Z,22.00
2018-07-27T04:56:19.587Z,22.00
2018-07-27T04:58:47.768Z,22.00
2018-07-27T05:01:15.943Z,22.00
2018-07-27T05:03:44.153Z,22.00
2018-07-27T05:06:12.341Z,22.10
2018-07-27T05:08:45.805Z,22.10
2018-07-27T05:11:14.459Z,22.10
2018-07-27T05:13:42.616Z,22.10
2018-07-27T05:16:10.812Z,22.20
2018-07-27T05:18:38.994Z,22.20
2018-07-27T05:23:35.185Z,22.30
2018-07-27T05:26:03.375Z,22.30
2018-07-27T05:28:31.558Z,22.30
2018-07-27T05:30:59.808Z,22.40
2018-07-27T05:33:28.391Z,22.40
2018-07-27T05:35:56.584Z,22.40
2018-07-27T05:38:24.902Z,22.40
2018-07-27T05:40:53.080Z,22.50
2018-07-27T05:43:22.443Z,22.60
2018-07-27T05:45:50.632Z,22.60
2018-07-27T05:48:18.868Z,22.70
2018-07-27T05:50:47.052Z,22.70
2018-07-27T05:53:15.220Z,22.70
2018-07-27T05:55:43.397Z,22.80
2018-07-27T05:58:11.600Z,22.80
2018-07-27T06:00:39.797Z,22.90
2018-07-27T06:03:08.033Z,22.90
2018-07-27T06:05:36.262Z,23.00
2018-07-27T06:08:04.481Z,23.10
2018-07-27T06:10:32.668Z,23.10
2018-07-27T06:13:00.869Z,23.20
2018-07-27T06:15:29.082Z,23.20
2018-07-27T06:17:57.323Z,23.30
2018-07-27T06:20:25.469Z,23.30
2018-07-27T06:22:53.683Z,23.40
2018-07-27T06:25:21.881Z,23.40
2018-07-27T06:27:50.196Z,23.50
2018-07-27T06:30:18.380Z,23.50
2018-07-27T06:32:46.572Z,23.60
2018-07-27T06:35:14.927Z,23.70
2018-07-27T06:37:43.141Z,23.80
2018-07-27T06:40:11.414Z,23.80
2018-07-27T06:42:39.733Z,23.90
2018-07-27T06:45:07.947Z,24.00
2018-07-27T06:47:36.311Z,24.10
2018-07-27T06:52:32.774Z,24.20
2018-07-27T06:55:00.942Z,24.30
2018-07-27T06:57:29.169Z,24.30
2018-07-27T06:59:57.396Z,24.40
2018-07-27T07:02:25.780Z,24.40
2018-07-27T07:04:55.304Z,24.50
2018-07-27T07:07:23.536Z,24.50
2018-07-27T07:09:51.959Z,24.60
2018-07-27T07:12:20.458Z,24.60
2018-07-27T07:14:48.708Z,24.70
2018-07-27T07:17:16.887Z,24.80
2018-07-27T07:19:45.284Z,24.80
2018-07-27T07:22:13.571Z,24.90
2018-07-27T07:24:41.815Z,24.90
2018-07-27T07:27:09.997Z,25.00
2018-07-27T07:29:38.172Z,25.00
2018-07-27T07:32:06.436Z,25.10
2018-07-27T07:34:34.634Z,25.10
2018-07-27T07:37:02.842Z,25.20
2018-07-27T07:39:31.057Z,25.20
2018-07-27T07:41:59.437Z,25.30
2018-07-27T07:44:27.843Z,25.30
2018-07-27T07:46:56.038Z,25.40
2018-07-27T07:49:24.413Z,25.50
2018-07-27T07:51:52.556Z,25.50
2018-07-27T07:54:20.740Z,25.60
2018-07-27T07:56:48.914Z,25.60
2018-07-27T07:59:17.096Z,25.70
2018-07-27T08:01:45.261Z,25.70
2018-07-27T08:04:13.493Z,25.80
2018-07-27T08:06:41.638Z,25.80
2018-07-27T08:09:10.041Z,25.90
2018-07-27T08:11:38.245Z,26.00
2018-07-27T08:14:06.486Z,26.00
2018-07-27T08:19:02.637Z,26.10
2018-07-27T08:23:58.860Z,26.20
2018-07-27T08:26:38.649Z,26.30
2018-07-27T08:29:07.876Z,26.30
2018-07-27T08:31:36.070Z,26.30
2018-07-27T08:34:04.516Z,26.40
2018-07-27T08:36:33.700Z,26.50
2018-07-27T08:39:02.992Z,26.50
2018-07-27T08:41:31.164Z,26.60
2018-07-27T08:43:59.366Z,26.60
2018-07-27T08:46:27.936Z,26.70
2018-07-27T08:48:57.009Z,26.80
2018-07-27T08:51:25.405Z,26.80
2018-07-27T08:53:54.397Z,26.90
2018-07-27T08:56:22.759Z,27.00
2018-07-27T08:58:51.037Z,27.00
2018-07-27T09:01:19.232Z,27.10
2018-07-27T09:03:47.809Z,27.10
2018-07-27T09:06:16.481Z,27.20
2018-07-27T09:08:44.655Z,27.30
2018-07-27T09:11:12.956Z,27.30
2018-07-27T09:13:41.191Z,27.40
2018-07-27T09:16:09.732Z,27.40
2018-07-27T09:18:38.152Z,27.40
2018-07-27T09:21:06.404Z,27.50
2018-07-27T09:23:34.908Z,27.50
2018-07-27T09:26:03.092Z,27.60
2018-07-27T09:28:31.254Z,27.60
2018-07-27T09:30:59.447Z,27.70
2018-07-27T09:33:27.661Z,27.70
2018-07-27T09:35:55.834Z,27.80
2018-07-27T09:38:23.993Z,27.80
2018-07-27T09:40:52.160Z,27.80
2018-07-27T09:43:20.352Z,27.90
2018-07-27T09:45:48.574Z,27.90
2018-07-27T09:48:16.766Z,28.00
2018-07-27T09:50:45.548Z,28.00
2018-07-27T09:53:14.332Z,28.10
2018-07-27T09:55:42.848Z,28.10
2018-07-27T09:58:11.304Z,28.10
2018-07-27T10:00:45.057Z,28.20
2018-07-27T10:03:13.256Z,28.30
2018-07-27T10:05:41.485Z,28.30
2018-07-27T10:08:09.724Z,28.30
2018-07-27T10:10:38.260Z,28.30
2018-07-27T10:13:06.628Z,28.40
2018-07-27T10:15:34.841Z,28.40
2018-07-27T10:18:03.236Z,28.50
2018-07-27T10:22:59.652Z,28.50
2018-07-27T10:25:27.840Z,28.50
2018-07-27T10:27:56.035Z,28.60
2018-07-27T10:30:24.205Z,28.60
2018-07-27T10:32:52.413Z,28.60
2018-07-27T10:35:20.580Z,28.70
2018-07-27T10:37:48.744Z,28.70
2018-07-27T10:40:16.988Z,28.80
2018-07-27T10:42:45.161Z,28.80
2018-07-27T10:45:13.335Z,28.80
2018-07-27T10:47:41.525Z,28.90
2018-07-27T10:50:09.775Z,28.90
2018-07-27T10:52:37.936Z,29.00
2018-07-27T10:55:06.124Z,29.10
2018-07-27T10:57:34.277Z,29.10
2018-07-27T11:00:02.494Z,29.20
2018-07-27T11:02:30.753Z,29.10
2018-07-27T11:04:58.871Z,29.10
2018-07-27T11:07:27.050Z,29.10
2018-07-27T11:09:55.695Z,29.10
2018-07-27T11:12:23.750Z,29.00
2018-07-27T11:14:51.944Z,29.10
2018-07-27T11:19:48.320Z,29.20
2018-07-27T11:22:16.549Z,29.30
2018-07-27T11:24:44.700Z,29.30
2018-07-27T11:27:12.880Z,29.30
2018-07-27T11:29:41.073Z,29.40
2018-07-27T11:32:09.241Z,29.40
2018-07-27T11:34:37.436Z,29.40
2018-07-27T11:37:05.796Z,29.40
2018-07-27T11:39:33.993Z,29.50
2018-07-27T11:42:02.164Z,29.40
2018-07-27T11:44:30.368Z,29.40
2018-07-27T11:46:58.542Z,29.50
2018-07-27T11:49:27.094Z,29.60
2018-07-27T11:51:55.471Z,29.60
2018-07-27T11:54:23.612Z,29.70
2018-07-27T11:56:51.948Z,29.70
2018-07-27T11:59:20.300Z,29.70
2018-07-27T12:01:48.538Z,29.70
2018-07-27T12:04:17.203Z,29.70
2018-07-27T12:06:46.166Z,29.70
2018-07-27T12:09:15.449Z,29.70
2018-07-27T12:11:43.687Z,29.70
2018-07-27T12:14:12.031Z,29.70
2018-07-27T12:16:40.034Z,29.70
2018-07-27T12:19:08.258Z,29.70
2018-07-27T12:21:36.664Z,29.80
2018-07-27T12:24:04.625Z,29.80
2018-07-27T12:26:32.788Z,29.80
2018-07-27T12:29:00.981Z,29.90
2018-07-27T12:31:29.173Z,29.90
2018-07-27T12:33:57.360Z,29.90
2018-07-27T12:36:25.546Z,30.00
2018-07-27T12:38:53.745Z,30.00
2018-07-27T12:41:21.937Z,30.00
2018-07-27T12:43:50.085Z,30.00
2018-07-27T12:46:18.252Z,30.10
2018-07-27T12:48:46.421Z,30.10
2018-07-27T12:51:14.680Z,30.20
2018-07-27T12:53:42.858Z,30.20
2018-07-27T12:56:11.020Z,30.20
2018-07-27T12:58:39.260Z,30.20
2018-07-27T13:01:08.382Z,30.30
2018-07-27T13:03:36.556Z,30.30
2018-07-27T13:06:04.729Z,30.30
2018-07-27T13:08:33.077Z,30.30
2018-07-27T13:11:01.245Z,30.30
2018-07-27T13:13:29.411Z,30.40
2018-07-27T13:15:57.946Z,30.40
2018-07-27T13:18:26.321Z,30.40
2018-07-27T13:20:56.538Z,30.40
2018-07-27T13:23:25.384Z,30.40
2018-07-27T13:28:36.381Z,30.40
2018-07-27T13:31:04.527Z,30.40
2018-07-27T13:33:32.741Z,30.50
2018-07-27T13:38:29.904Z,30.50
2018-07-27T13:40:58.365Z,30.60
2018-07-27T13:43:26.592Z,30.60
2018-07-27T13:45:54.945Z,30.60
2018-07-27T13:48:23.116Z,30.60
2018-07-27T13:50:51.312Z,30.60
2018-07-27T13:53:19.740Z,30.70
2018-07-27T13:55:47.902Z,30.70
2018-07-27T13:58:16.052Z,30.70
2018-07-27T14:00:44.697Z,30.70
2018-07-27T14:03:13.124Z,30.80
2018-07-27T14:05:41.306Z,30.80
2018-07-27T14:08:09.481Z,30.80
2018-07-27T14:10:37.640Z,30.80
2018-07-27T14:13:05.816Z,30.80
2018-07-27T14:15:33.981Z,30.80
2018-07-27T14:18:05.200Z,30.80
2018-07-27T14:20:33.372Z,30.80
2018-07-27T14:23:01.555Z,30.80
2018-07-27T14:25:29.731Z,30.90
2018-07-27T14:27:58.101Z,31.10
2018-07-27T14:30:26.337Z,31.20
2018-07-27T14:32:54.492Z,31.50
2018-07-27T14:35:22.651Z,32.30
2018-07-27T14:37:50.813Z,32.60
2018-07-27T14:40:18.993Z,32.40
2018-07-27T14:42:47.188Z,32.10
2018-07-27T14:45:15.416Z,32.40
2018-07-27T14:47:43.549Z,32.50
2018-07-27T14:50:11.701Z,32.30
2018-07-27T14:52:40.050Z,32.10
2018-07-27T14:55:08.084Z,32.00
2018-07-27T14:57:36.248Z,31.90
2018-07-27T15:00:04.709Z,31.80
2018-07-27T15:02:32.877Z,31.80
2018-07-27T15:05:01.070Z,31.90
2018-07-27T15:07:29.220Z,31.90
2018-07-27T15:09:57.401Z,31.90
2018-07-27T15:12:25.576Z,31.90
2018-07-27T15:14:53.756Z,32.30
2018-07-27T15:17:21.936Z,32.50
2018-07-27T15:19:50.129Z,32.40
2018-07-27T15:22:18.284Z,32.20
2018-07-27T15:24:46.460Z,32.20
2018-07-27T15:29:42.591Z,31.90
2018-07-27T15:32:10.740Z,31.80
2018-07-27T15:34:38.910Z,31.60
2018-07-27T15:37:07.144Z,31.60
2018-07-27T15:39:35.330Z,31.50
2018-07-27T15:42:03.479Z,31.50
2018-07-27T15:44:31.681Z,31.40
2018-07-27T15:46:59.828Z,31.30
2018-07-27T15:49:27.997Z,31.30
2018-07-27T15:51:56.164Z,31.30
2018-07-27T15:56:52.268Z,31.20
2018-07-27T15:59:20.435Z,31.20
2018-07-27T16:01:48.616Z,31.20
2018-07-27T16:04:16.844Z,31.20
2018-07-27T16:06:45.018Z,31.20
2018-07-27T16:09:13.180Z,31.10
2018-07-27T16:11:41.359Z,31.10
2018-07-27T16:14:09.564Z,31.10
2018-07-27T16:16:37.721Z,31.10
2018-07-27T16:19:05.884Z,31.10
2018-07-27T16:21:34.045Z,31.10
2018-07-27T16:24:02.208Z,31.00
2018-07-27T16:26:30.388Z,31.00
2018-07-27T16:28:58.562Z,31.00
2018-07-27T16:31:26.739Z,31.00
2018-07-27T16:33:54.933Z,31.00
2018-07-27T16:36:23.300Z,31.10
2018-07-27T16:41:19.421Z,31.10
2018-07-27T16:43:47.588Z,31.00
2018-07-27T16:46:15.751Z,30.90
2018-07-27T16:48:44.008Z,30.90
2018-07-27T16:51:12.124Z,30.80
2018-07-27T16:53:40.288Z,30.80
2018-07-27T16:56:08.460Z,30.70
2018-07-27T16:58:36.620Z,30.70
2018-07-27T17:01:04.873Z,30.60
2018-07-27T17:03:33.307Z,30.60
2018-07-27T17:06:01.525Z,30.60
2018-07-27T17:08:29.868Z,30.50
2018-07-27T17:10:58.053Z,30.50
2018-07-27T17:13:26.275Z,30.50
2018-07-27T17:15:54.414Z,30.40
2018-07-27T17:18:22.578Z,30.40
2018-07-27T17:20:50.756Z,30.40
2018-07-27T17:23:18.937Z,30.40
2018-07-27T17:25:47.191Z,30.40
2018-07-27T17:28:15.280Z,30.40
2018-07-27T17:30:43.449Z,30.40
2018-07-27T17:33:11.617Z,30.30
2018-07-27T17:35:39.812Z,30.30
2018-07-27T17:38:08.000Z,30.30
2018-07-27T17:40:36.164Z,30.30
2018-07-27T17:43:04.423Z,30.20
2018-07-27T17:45:32.584Z,30.20
2018-07-27T17:48:00.774Z,30.20
2018-07-27T17:50:28.958Z,30.10
2018-07-27T17:52:58.333Z,30.10
2018-07-27T17:55:26.509Z,30.10
2018-07-27T17:57:55.404Z,30.10
2018-07-27T18:00:23.677Z,30.00
2018-07-27T18:02:51.879Z,30.00
2018-07-27T18:05:20.233Z,29.90
2018-07-27T18:07:48.506Z,29.90
2018-07-27T18:10:16.598Z,29.90
2018-07-27T18:12:44.776Z,29.90
2018-07-27T18:15:12.976Z,29.80
2018-07-27T18:17:41.132Z,29.80
2018-07-27T18:20:10.937Z,29.80
2018-07-27T18:22:39.289Z,29.80
2018-07-27T18:27:40.301Z,29.70
2018-07-27T18:30:08.917Z,29.60
2018-07-27T18:32:37.199Z,29.60
2018-07-27T18:35:05.717Z,29.60
2018-07-27T18:37:33.868Z,29.50
2018-07-27T18:40:02.049Z,29.50
2018-07-27T18:42:30.200Z,29.40
2018-07-27T18:44:58.390Z,29.40
2018-07-27T18:47:26.565Z,29.40
2018-07-27T18:49:54.749Z,29.30
2018-07-27T18:52:22.959Z,29.30
2018-07-27T18:54:51.124Z,29.30
2018-07-27T18:57:19.310Z,29.20
2018-07-27T18:59:47.460Z,29.20
2018-07-27T19:02:15.641Z,29.20
2018-07-27T19:04:43.794Z,29.10
2018-07-27T19:07:11.974Z,29.10
2018-07-27T19:09:40.177Z,29.00
2018-07-27T19:12:08.404Z,29.00
2018-07-27T19:14:36.564Z,29.00
2018-07-27T19:17:04.846Z,28.90
2018-07-27T19:22:00.964Z,28.80
2018-07-27T19:24:29.140Z,28.80
2018-07-27T19:29:25.457Z,28.70
2018-07-27T19:31:53.699Z,28.70
2018-07-27T19:34:21.845Z,28.60
2018-07-27T19:36:50.081Z,28.60
2018-07-27T19:39:18.188Z,28.60
2018-07-27T19:41:46.379Z,28.50
2018-07-27T19:44:14.570Z,28.50
2018-07-27T19:46:42.697Z,28.50
2018-07-27T19:49:11.194Z,28.40
2018-07-27T19:51:39.333Z,28.40
2018-07-27T19:54:07.525Z,28.40
2018-07-27T19:56:35.720Z,28.30
2018-07-27T19:59:03.896Z,28.30
2018-07-27T20:01:32.052Z,28.20
2018-07-27T20:04:00.214Z,28.20
2018-07-27T20:06:28.440Z,28.10
2018-07-27T20:08:57.280Z,28.00
2018-07-27T20:11:25.490Z,28.00
2018-07-27T20:16:21.608Z,27.90
2018-07-27T20:18:49.819Z,27.90
2018-07-27T20:21:18.004Z,27.90
2018-07-27T20:23:46.160Z,27.90
2018-07-27T20:26:14.320Z,27.90
2018-07-27T20:28:42.476Z,27.80
2018-07-27T20:31:10.660Z,27.80
2018-07-27T20:33:38.814Z,27.70
2018-07-27T20:36:07.001Z,27.60
2018-07-27T20:38:35.145Z,27.50
2018-07-27T20:41:03.328Z,27.50
2018-07-27T20:43:31.507Z,27.40
2018-07-27T20:45:59.697Z,27.30
2018-07-27T20:48:27.884Z,27.30
2018-07-27T20:50:56.022Z,27.30
2018-07-27T20:53:24.192Z,27.20
2018-07-27T20:55:52.382Z,27.20
2018-07-27T20:58:20.569Z,27.10
2018-07-27T21:00:48.737Z,27.10
2018-07-27T21:03:16.916Z,27.00
2018-07-27T21:05:45.094Z,26.90
2018-07-27T21:08:13.290Z,26.90
2018-07-27T21:10:41.671Z,26.80
2018-07-27T21:13:09.841Z,26.80
2018-07-27T21:15:38.002Z,26.70
2018-07-27T21:18:06.196Z,26.70
2018-07-27T21:20:34.368Z,26.60
2018-07-27T21:23:02.554Z,26.60
2018-07-27T21:25:30.736Z,26.50
2018-07-27T21:27:58.892Z,26.50
2018-07-27T21:30:27.070Z,26.50
2018-07-27T21:32:55.236Z,26.50
2018-07-27T21:35:23.458Z,26.50
2018-07-27T21:37:51.568Z,26.40
2018-07-27T21:40:19.735Z,26.40
2018-07-27T21:42:47.929Z,26.30
2018-07-27T21:45:16.093Z,26.20
2018-07-27T21:47:44.272Z,26.20
2018-07-27T21:50:12.440Z,26.20
2018-07-27T21:52:40.668Z,26.10
2018-07-27T21:55:08.824Z,26.10
2018-07-27T21:57:37.180Z,26.10
2018-07-27T22:00:08.006Z,26.10
2018-07-27T22:02:36.169Z,26.10
2018-07-27T22:05:05.014Z,26.00
2018-07-27T22:07:33.176Z,26.00
2018-07-27T22:10:01.389Z,25.90
2018-07-27T22:12:29.572Z,25.90
2018-07-27T22:14:57.732Z,25.80
2018-07-27T22:17:25.900Z,25.70
2018-07-27T22:19:54.088Z,25.70
2018-07-27T22:22:22.288Z,25.60
2018-07-27T22:24:50.903Z,25.50
2018-07-27T22:27:19.069Z,25.50
2018-07-27T22:29:47.252Z,25.50
2018-07-27T22:32:15.476Z,25.50
2018-07-27T22:34:43.600Z,25.40
2018-07-27T22:37:11.764Z,25.40
2018-07-27T22:39:39.924Z,25.30
2018-07-27T22:42:08.100Z,25.20
2018-07-27T22:44:36.269Z,25.10
2018-07-27T22:47:04.433Z,25.10
2018-07-27T22:52:00.539Z,25.00
2018-07-27T22:54:28.710Z,24.90
2018-07-27T22:56:56.881Z,24.90
2018-07-27T22:59:25.045Z,24.90
2018-07-27T23:01:53.204Z,24.90
2018-07-27T23:04:21.581Z,24.80
2018-07-27T23:06:49.760Z,24.80
2018-07-27T23:09:17.971Z,24.70
2018-07-27T23:11:46.120Z,24.60
2018-07-27T23:14:14.301Z,24.60
2018-07-27T23:16:42.466Z,24.60
2018-07-27T23:19:10.668Z,24.50
2018-07-27T23:21:38.865Z,24.50
2018-07-27T23:24:07.038Z,24.50
2018-07-27T23:26:35.222Z,24.50
2018-07-27T23:29:03.388Z,24.50
2018-07-27T23:31:31.585Z,24.50
2018-07-27T23:33:59.761Z,24.50
2018-07-27T23:36:27.918Z,24.50
2018-07-27T23:38:56.092Z,24.40
2018-07-27T23:41:24.257Z,24.40
2018-07-27T23:43:52.474Z,24.40
2018-07-27T23:46:20.624Z,24.30
2018-07-27T23:48:48.805Z,24.30
2018-07-27T23:51:16.972Z,24.30
2018-07-27T23:53:45.135Z,24.20
2018-07-27T23:56:13.605Z,24.20
2018-07-27T23:58:41.773Z,24.10
